Time;durP1;ratioP1;P1;durP2;ratioP2;P2;SDS_P1;SDS_P2;PMS_P1;PMS_P2;Temp;Humidity;BMP_temperature;BMP_pressure;BME280_temperature;BME280_humidity;BME280_pressure;Samples;Min_cycle;Max_cycle;Signal;HPM_P1;HPM_P2
2022/09/02 09:52:38;;;;;;;;;4.75;4.75;;;;;;;;5047927;27;1795619;-77
2022/09/02 09:55:10;;;;;;;;;4.00;4.00;;;;;;;;5111573;28;21088;-76
2022/09/02 09:57:36;;;;;;;;;3.80;3.00;;;;;;;;5096905;27;9915;-76
2022/09/02 10:00:09;;;;;;;;;2.80;2.80;;;;;;;;5100765;28;10986;-78
2022/09/02 10:02:34;;;;;;;;;4.40;4.40;;;;;;;;5111654;28;11441;-79
2022/09/02 10:05:29;;;;;;;;;5.75;5.75;;;;;;;;5116809;27;12979;-78
2022/09/02 10:08:02;;;;;;;;;2.00;2.00;;;;;;;;5110659;27;11669;-78
2022/09/02 10:10:29;;;;;;;;;2.00;2.00;;;;;;;;5104390;27;11542;-78
2022/09/02 10:12:57;;;;;;;;;2.40;2.40;;;;;;;;5115215;28;8809;-74
2022/09/02 10:15:28;;;;;;;;;4.60;4.60;;;;;;;;5115239;27;9301;-78
2022/09/02 10:18:13;;;;;;;;;2.00;2.00;;;;;;;;5116161;27;12203;-78
2022/09/02 10:20:41;;;;;;;;;1.80;1.80;;;;;;;;5114119;27;11574;-76
2022/09/02 10:23:14;;;;;;;;;2.00;2.00;;;;;;;;5098079;22;12921;-73
2022/09/02 10:25:50;;;;;;;;;1.60;1.60;;;;;;;;5075096;28;11377;-72
2022/09/02 10:28:40;;;;;;;;;2.00;1.00;;;;;;;;5077954;28;11340;-73
2022/09/02 10:31:06;;;;;;;;;4.00;2.80;;;;;;;;5070812;28;11380;-72
2022/09/02 10:33:44;;;;;;;;;3.00;3.00;;;;;;;;5022922;28;13026;-73
2022/09/02 10:36:18;;;;;;;;;5.60;5.60;;;;;;;;5051122;28;11374;-73
2022/09/02 10:38:46;;;;;;;;;3.20;3.00;;;;;;;;5054571;28;11620;-73
2022/09/02 10:41:24;;;;;;;;;2.00;2.00;;;;;;;;5054524;28;11449;-74
2022/09/02 10:43:55;;;;;;;;;2.00;1.75;;;;;;;;5053888;28;10365;-73
2022/09/02 10:46:21;;;;;;;;;2.25;2.25;;;;;;;;5052603;28;8882;-73
2022/09/02 10:48:53;;;;;;;;;6.00;6.00;;;;;;;;5042900;28;11624;-73
2022/09/02 10:51:32;;;;;;;;;3.00;3.00;;;;;;;;5054368;28;11372;-76
2022/09/02 10:54:16;;;;;;;;;3.00;2.00;;;;;;;;5055314;28;8797;-75
2022/09/02 10:56:41;;;;;;;;;2.00;1.25;;;;;;;;5051969;28;8802;-75
2022/09/02 10:59:15;;;;;;;;;4.33;4.33;;;;;;;;5055043;28;12031;-75
2022/09/02 11:01:45;;;;;;;;;1.00;1.00;;;;;;;;5050634;28;10367;-75
2022/09/02 11:04:20;;;;;;;;;1.50;1.50;;;;;;;;5036770;28;11376;-78
2022/09/02 11:06:47;;;;;;;;;1.00;1.00;;;;;;;;5038466;28;11293;-75
2022/09/02 11:09:22;;;;;;;;;2.50;2.50;;;;;;;;5041141;28;8774;-75
2022/09/02 11:12:10;;;;;;;;;1.75;1.75;;;;;;;;5039551;28;11402;-75
2022/09/02 11:14:54;;;;;;;;;1.50;0.75;;;;;;;;5002881;28;11404;-76
2022/09/02 11:17:41;;;;;;;;;0.00;0.00;;;;;;;;5059918;28;10308;-76
2022/09/02 11:20:37;;;;;;;;;6.50;6.50;;;;;;;;5053759;28;11696;-74
2022/09/02 11:23:02;;;;;;;;;2.00;2.00;;;;;;;;5012563;28;11294;-77
2022/09/02 11:25:39;;;;;;;;;4.00;4.00;;;;;;;;5032963;28;13422;-77
2022/09/02 11:28:24;;;;;;;;;0.00;0.00;;;;;;;;5033450;28;8804;-77
2022/09/02 11:31:10;;;;;;;;;3.00;3.00;;;;;;;;5008801;28;8951;-78
2022/09/02 11:33:47;;;;;;;;;2.25;2.25;;;;;;;;5029539;28;8863;-77
2022/09/02 11:36:13;;;;;;;;;8.50;7.50;;;;;;;;5040690;28;11375;-78
2022/09/02 11:38:38;;;;;;;;;2.33;2.33;;;;;;;;5032434;28;14714;-77
2022/09/02 11:41:22;;;;;;;;;4.00;3.00;;;;;;;;5037051;28;11279;-77
2022/09/02 11:44:05;;;;;;;;;6.00;6.00;;;;;;;;5040243;28;11523;-77
2022/09/02 11:46:30;;;;;;;;;1.75;1.25;;;;;;;;5041325;28;8769;-76
2022/09/02 11:49:20;;;;;;;;;2.00;2.00;;;;;;;;5040478;28;11442;-75
2022/09/02 11:51:57;;;;;;;;;0.00;0.00;;;;;;;;5040958;28;11873;-77
2022/09/02 11:54:25;;;;;;;;;3.25;3.25;;;;;;;;5038839;28;8904;-76
2022/09/02 11:56:55;;;;;;;;;1.00;1.00;;;;;;;;5039319;28;13428;-75
2022/09/02 11:59:39;;;;;;;;;2.00;2.00;;;;;;;;5040850;28;11492;-75
2022/09/02 12:02:04;;;;;;;;;0.00;0.00;;;;;;;;5038877;28;9934;-75
2022/09/02 12:04:30;;;;;;;;;1.00;1.00;;;;;;;;5040087;28;8883;-75
2022/09/02 12:07:07;;;;;;;;;0.00;0.00;;;;;;;;5022717;28;8840;-74
2022/09/02 12:09:46;;;;;;;;;0.00;0.00;;;;;;;;5040139;28;8807;-76
2022/09/02 12:12:38;;;;;;;;;0.75;0.75;;;;;;;;5040935;28;8777;-75
2022/09/02 12:15:03;;;;;;;;;0.00;0.00;;;;;;;;5014932;28;8813;-75
2022/09/02 12:17:37;;;;;;;;;0.00;0.00;;;;;;;;5038542;28;8860;-75
2022/09/02 12:20:04;;;;;;;;;0.75;0.75;;;;;;;;5040257;28;8769;-77
2022/09/02 12:22:37;;;;;;;;;1.25;1.00;;;;;;;;5039799;28;8852;-77
2022/09/02 12:25:04;;;;;;;;;1.00;1.00;;;;;;;;5040037;28;12013;-78
2022/09/02 12:27:29;;;;;;;;;1.00;1.00;;;;;;;;5039690;28;8891;-75
2022/09/02 12:29:55;;;;;;;;;0.00;0.00;;;;;;;;5040857;28;8796;-78
2022/09/02 12:32:39;;;;;;;;;1.00;1.00;;;;;;;;5040290;28;8809;-78
2022/09/02 12:35:09;;;;;;;;;1.50;1.50;;;;;;;;5038958;28;8860;-81
2022/09/02 12:37:54;;;;;;;;;3.00;3.00;;;;;;;;5040219;28;8855;-79
2022/09/02 12:40:26;;;;;;;;;2.00;1.75;;;;;;;;5040315;28;12097;-74
2022/09/02 12:42:52;;;;;;;;;1.00;1.00;;;;;;;;5038310;28;14087;-75
2022/09/02 12:45:25;;;;;;;;;1.00;0.75;;;;;;;;5039732;28;11423;-75
2022/09/02 12:47:50;;;;;;;;;2.25;2.00;;;;;;;;5040435;28;9028;-76
2022/09/02 12:50:26;;;;;;;;;0.67;0.67;;;;;;;;5040028;28;11305;-77
2022/09/02 12:53:11;;;;;;;;;1.25;1.25;;;;;;;;5038163;28;11779;-77
2022/09/02 12:55:37;;;;;;;;;1.50;1.50;;;;;;;;5038676;28;11877;-76
2022/09/02 12:58:07;;;;;;;;;1.00;1.00;;;;;;;;5039545;28;8797;-80
2022/09/02 13:00:45;;;;;;;;;4.00;2.00;;;;;;;;5039493;28;8765;-76
2022/09/02 13:03:22;;;;;;;;;4.75;1.00;;;;;;;;5039436;28;8770;-74
2022/09/02 13:06:11;;;;;;;;;1.75;1.75;;;;;;;;5039168;28;10682;-75
2022/09/02 13:08:54;;;;;;;;;2.00;1.00;;;;;;;;5011469;28;11357;-82
2022/09/02 13:11:38;;;;;;;;;2.25;1.25;;;;;;;;5039266;28;12569;-80
2022/09/02 13:14:18;;;;;;;;;1.00;1.00;;;;;;;;5039090;28;8916;-76
2022/09/02 13:16:50;;;;;;;;;2.00;1.00;;;;;;;;5039605;28;11867;-76
2022/09/02 13:19:27;;;;;;;;;2.25;2.25;;;;;;;;5038143;28;8889;-77
2022/09/02 13:22:01;;;;;;;;;1.75;1.00;;;;;;;;5038293;28;11548;-74
2022/09/02 13:24:45;;;;;;;;;2.00;2.00;;;;;;;;5043134;28;13477;-80
2022/09/02 13:27:22;;;;;;;;;1.00;1.00;;;;;;;;5027345;28;11013;-78
2022/09/02 13:30:00;;;;;;;;;3.00;3.00;;;;;;;;5026769;28;10959;-79
2022/09/02 13:32:27;;;;;;;;;3.25;2.25;;;;;;;;5036007;28;8983;-78
2022/09/02 13:34:54;;;;;;;;;2.00;2.00;;;;;;;;5038173;28;10346;-75
2022/09/02 13:37:30;;;;;;;;;3.00;3.00;;;;;;;;5038695;28;11548;-75
2022/09/02 13:39:56;;;;;;;;;2.75;2.75;;;;;;;;5028731;28;11407;-75
2022/09/02 13:42:26;;;;;;;;;4.00;2.33;;;;;;;;5028875;28;11738;-74
2022/09/02 13:45:07;;;;;;;;;2.00;2.00;;;;;;;;5038568;28;10987;-75
2022/09/02 13:47:33;;;;;;;;;2.75;2.75;;;;;;;;5037448;28;11599;-76
2022/09/02 13:50:00;;;;;;;;;2.00;2.00;;;;;;;;5039542;28;8809;-76
2022/09/02 13:52:25;;;;;;;;;3.00;3.00;;;;;;;;5038393;28;8841;-75
2022/09/02 13:54:53;;;;;;;;;2.67;2.67;;;;;;;;5044657;28;10532;-77
2022/09/02 13:57:24;;;;;;;;;2.25;2.25;;;;;;;;5037110;28;11375;-77
2022/09/02 13:59:50;;;;;;;;;1.50;1.50;;;;;;;;5037685;28;9074;-77
2022/09/02 14:02:18;;;;;;;;;4.00;4.00;;;;;;;;5037620;28;11425;-78
2022/09/02 14:04:44;;;;;;;;;2.25;1.50;;;;;;;;5038077;28;12628;-78
2022/09/02 14:07:09;;;;;;;;;5.00;4.00;;;;;;;;5037990;28;11293;-79
2022/09/02 14:09:35;;;;;;;;;2.00;2.00;;;;;;;;5037945;28;11311;-78
2022/09/02 14:12:01;;;;;;;;;3.67;3.67;;;;;;;;5037096;28;8866;-79
2022/09/02 14:14:27;;;;;;;;;1.75;1.50;;;;;;;;5037295;28;11669;-76
2022/09/02 14:17:12;;;;;;;;;2.33;2.33;;;;;;;;5027156;28;13109;-77
2022/09/02 14:19:37;;;;;;;;;2.75;2.75;;;;;;;;5036174;28;11654;-78
2022/09/02 14:22:03;;;;;;;;;2.67;2.67;;;;;;;;5037150;28;8820;-81
2022/09/02 14:24:29;;;;;;;;;2.00;2.00;;;;;;;;5037610;28;8824;-81
2022/09/02 14:26:55;;;;;;;;;1.00;1.00;;;;;;;;5037258;28;8805;-83
2022/09/02 14:29:22;;;;;;;;;3.25;3.25;;;;;;;;5036965;28;8978;-83
2022/09/02 14:32:02;;;;;;;;;2.00;2.00;;;;;;;;5038485;28;11404;-80
2022/09/02 14:34:30;;;;;;;;;4.00;4.00;;;;;;;;5038591;28;11871;-79
2022/09/02 14:36:56;;;;;;;;;3.00;3.00;;;;;;;;5039211;28;8857;-82
2022/09/02 14:39:21;;;;;;;;;3.00;3.00;;;;;;;;5054488;28;8799;-80
